<?xml version="1.0" encoding="UTF-8" standalone="no" ?>
<gpx xmlns="http://www.topografix.com/GPX/1/1" xmlns:xsi="http://www.w3.org/2001/XMLSchema-instance" xsi:schemaLocation="http://www.topografix.com/GPX/1/1 http://www.topografix.com/GPX/1/1/gpx.xsd" version="1.1" creator="VisuGPX - https://www.visugpx.com">
  <metadata>
    <name>FINLANDE - PEDESTRE - IVALO - Boucle au nord Ivalo.</name>
    <desc><![CDATA[Boucle au départ de l\'hôtel en passant par le centre du village prendre le pont puis la piste \"Ivalo Jänkkävaara\" éclairée. Prendre la piste \"Jänkkävaara\" éclairée puis rentrer par la piste de ski de fond \"Ivalo rivière Jänkkävaara Yhdyslatu\" et terminer par le sentier motoneige sur la rivière Ivalojoki jusqu\'à l\'hôtel.]]></desc>
  </metadata>
  <trk>
    <name><![CDATA[ACTIVE LOG 007]]></name>
    <trkseg>
      <trkpt lat="68.6502" lon="27.54194">
        <ele>186.152466</ele>
        <time>2014-03-20T07:08:09Z</time>
      </trkpt>
      <trkpt lat="68.65019" lon="27.54193">
        <ele>190.478394</ele>
        <time>2014-03-20T07:08:10Z</time>
      </trkpt>
      <trkpt lat="68.65019" lon="27.54191">
        <ele>189.036377</ele>
        <time>2014-03-20T07:08:15Z</time>
      </trkpt>
      <trkpt lat="68.65017" lon="27.54185">
        <ele>185.191162</ele>
        <time>2014-03-20T07:08:23Z</time>
      </trkpt>
      <trkpt lat="68.65016" lon="27.54184">
        <ele>181.826416</ele>
        <time>2014-03-20T07:08:25Z</time>
      </trkpt>
      <trkpt lat="68.65015" lon="27.54186">
        <ele>178.461914</ele>
        <time>2014-03-20T07:08:27Z</time>
      </trkpt>
      <trkpt lat="68.65014" lon="27.54184">
        <ele>174.616577</ele>
        <time>2014-03-20T07:08:29Z</time>
      </trkpt>
      <trkpt lat="68.65015" lon="27.54184">
        <ele>174.135864</ele>
        <time>2014-03-20T07:08:30Z</time>
      </trkpt>
      <trkpt lat="68.65018" lon="27.54189">
        <ele>168.368042</ele>
        <time>2014-03-20T07:08:35Z</time>
      </trkpt>
      <trkpt lat="68.65022" lon="27.542">
        <ele>163.561523</ele>
        <time>2014-03-20T07:08:40Z</time>
      </trkpt>
      <trkpt lat="68.65022" lon="27.54211">
        <ele>159.235474</ele>
        <time>2014-03-20T07:08:44Z</time>
      </trkpt>
      <trkpt lat="68.65023" lon="27.54214">
        <ele>159.235474</ele>
        <time>2014-03-20T07:08:45Z</time>
      </trkpt>
      <trkpt lat="68.65024" lon="27.54221">
        <ele>156.351563</ele>
        <time>2014-03-20T07:08:48Z</time>
      </trkpt>
      <trkpt lat="68.65026" lon="27.54224">
        <ele>154.909546</ele>
        <time>2014-03-20T07:08:51Z</time>
      </trkpt>
      <trkpt lat="68.65028" lon="27.54228">
        <ele>151.544922</ele>
        <time>2014-03-20T07:08:54Z</time>
      </trkpt>
      <trkpt lat="68.65029" lon="27.54229">
        <ele>151.544922</ele>
        <time>2014-03-20T07:08:55Z</time>
      </trkpt>
      <trkpt lat="68.65033" lon="27.54235">
        <ele>147.699707</ele>
        <time>2014-03-20T07:09:00Z</time>
      </trkpt>
      <trkpt lat="68.65039" lon="27.54244">
        <ele>144.815796</ele>
        <time>2014-03-20T07:09:08Z</time>
      </trkpt>
      <trkpt lat="68.6504" lon="27.54244">
        <ele>144.815796</ele>
        <time>2014-03-20T07:09:09Z</time>
      </trkpt>
      <trkpt lat="68.65045" lon="27.54243">
        <ele>142.893066</ele>
        <time>2014-03-20T07:09:14Z</time>
      </trkpt>
      <trkpt lat="68.65055" lon="27.54245">
        <ele>140.009155</ele>
        <time>2014-03-20T07:09:26Z</time>
      </trkpt>
      <trkpt lat="68.65067" lon="27.54266">
        <ele>137.125244</ele>
        <time>2014-03-20T07:09:42Z</time>
      </trkpt>
      <trkpt lat="68.6508" lon="27.54289">
        <ele>134.721924</ele>
        <time>2014-03-20T07:10:01Z</time>
      </trkpt>
      <trkpt lat="68.65091" lon="27.5431">
        <ele>134.241211</ele>
        <time>2014-03-20T07:10:17Z</time>
      </trkpt>
      <trkpt lat="68.65093" lon="27.5431">
        <ele>134.241211</ele>
        <time>2014-03-20T07:10:19Z</time>
      </trkpt>
      <trkpt lat="68.65115" lon="27.54305">
        <ele>133.279907</ele>
        <time>2014-03-20T07:10:41Z</time>
      </trkpt>
      <trkpt lat="68.65138" lon="27.54296">
        <ele>133.760498</ele>
        <time>2014-03-20T07:11:03Z</time>
      </trkpt>
      <trkpt lat="68.65164" lon="27.54287">
        <ele>132.799316</ele>
        <time>2014-03-20T07:11:26Z</time>
      </trkpt>
      <trkpt lat="68.6519" lon="27.54278">
        <ele>133.760498</ele>
        <time>2014-03-20T07:11:50Z</time>
      </trkpt>
      <trkpt lat="68.65216" lon="27.54266">
        <ele>134.241211</ele>
        <time>2014-03-20T07:12:13Z</time>
      </trkpt>
      <trkpt lat="68.65246" lon="27.54252">
        <ele>133.760498</ele>
        <time>2014-03-20T07:12:39Z</time>
      </trkpt>
      <trkpt lat="68.65271" lon="27.5424">
        <ele>132.799316</ele>
        <time>2014-03-20T07:13:01Z</time>
      </trkpt>
      <trkpt lat="68.65302" lon="27.54233">
        <ele>132.799316</ele>
        <time>2014-03-20T07:13:28Z</time>
      </trkpt>
      <trkpt lat="68.65331" lon="27.54216">
        <ele>133.760498</ele>
        <time>2014-03-20T07:13:53Z</time>
      </trkpt>
      <trkpt lat="68.65361" lon="27.54198">
        <ele>133.760498</ele>
        <time>2014-03-20T07:14:19Z</time>
      </trkpt>
      <trkpt lat="68.65394" lon="27.5418">
        <ele>132.799316</ele>
        <time>2014-03-20T07:14:48Z</time>
      </trkpt>
      <trkpt lat="68.65422" lon="27.54161">
        <ele>132.318604</ele>
        <time>2014-03-20T07:15:13Z</time>
      </trkpt>
      <trkpt lat="68.6545" lon="27.54144">
        <ele>133.279907</ele>
        <time>2014-03-20T07:15:38Z</time>
      </trkpt>
      <trkpt lat="68.65476" lon="27.54126">
        <ele>132.799316</ele>
        <time>2014-03-20T07:16:01Z</time>
      </trkpt>
      <trkpt lat="68.65498" lon="27.54092">
        <ele>132.799316</ele>
        <time>2014-03-20T07:16:24Z</time>
      </trkpt>
      <trkpt lat="68.6552" lon="27.54086">
        <ele>132.799316</ele>
        <time>2014-03-20T07:16:44Z</time>
      </trkpt>
      <trkpt lat="68.65547" lon="27.54084">
        <ele>132.799316</ele>
        <time>2014-03-20T07:17:08Z</time>
      </trkpt>
      <trkpt lat="68.65572" lon="27.54066">
        <ele>132.799316</ele>
        <time>2014-03-20T07:17:31Z</time>
      </trkpt>
      <trkpt lat="68.65597" lon="27.54049">
        <ele>132.318604</ele>
        <time>2014-03-20T07:17:52Z</time>
      </trkpt>
      <trkpt lat="68.65623" lon="27.54033">
        <ele>132.318604</ele>
        <time>2014-03-20T07:18:16Z</time>
      </trkpt>
      <trkpt lat="68.6564" lon="27.54025">
        <ele>132.318604</ele>
        <time>2014-03-20T07:18:32Z</time>
      </trkpt>
      <trkpt lat="68.65662" lon="27.54011">
        <ele>132.318604</ele>
        <time>2014-03-20T07:18:53Z</time>
      </trkpt>
      <trkpt lat="68.65688" lon="27.53995">
        <ele>131.3573</ele>
        <time>2014-03-20T07:19:17Z</time>
      </trkpt>
      <trkpt lat="68.6571" lon="27.53978">
        <ele>132.318604</ele>
        <time>2014-03-20T07:19:37Z</time>
      </trkpt>
      <trkpt lat="68.65714" lon="27.53976">
        <ele>131.837891</ele>
        <time>2014-03-20T07:19:41Z</time>
      </trkpt>
      <trkpt lat="68.65728" lon="27.53968">
        <ele>130.876709</ele>
        <time>2014-03-20T07:19:58Z</time>
      </trkpt>
      <trkpt lat="68.65738" lon="27.5396">
        <ele>131.3573</ele>
        <time>2014-03-20T07:20:17Z</time>
      </trkpt>
      <trkpt lat="68.65752" lon="27.53928">
        <ele>131.3573</ele>
        <time>2014-03-20T07:20:36Z</time>
      </trkpt>
      <trkpt lat="68.65774" lon="27.53924">
        <ele>131.3573</ele>
        <time>2014-03-20T07:20:54Z</time>
      </trkpt>
      <trkpt lat="68.65792" lon="27.53932">
        <ele>131.3573</ele>
        <time>2014-03-20T07:21:12Z</time>
      </trkpt>
      <trkpt lat="68.65799" lon="27.53926">
        <ele>131.837891</ele>
        <time>2014-03-20T07:21:26Z</time>
      </trkpt>
      <trkpt lat="68.65803" lon="27.53924">
        <ele>131.837891</ele>
        <time>2014-03-20T07:21:39Z</time>
      </trkpt>
      <trkpt lat="68.65824" lon="27.53914">
        <ele>131.3573</ele>
        <time>2014-03-20T07:22:00Z</time>
      </trkpt>
      <trkpt lat="68.65852" lon="27.53908">
        <ele>130.876709</ele>
        <time>2014-03-20T07:22:25Z</time>
      </trkpt>
      <trkpt lat="68.65875" lon="27.53902">
        <ele>131.3573</ele>
        <time>2014-03-20T07:22:48Z</time>
      </trkpt>
      <trkpt lat="68.65881" lon="27.53898">
        <ele>131.3573</ele>
        <time>2014-03-20T07:22:59Z</time>
      </trkpt>
      <trkpt lat="68.65887" lon="27.53898">
        <ele>130.876709</ele>
        <time>2014-03-20T07:23:13Z</time>
      </trkpt>
      <trkpt lat="68.65901" lon="27.53891">
        <ele>131.3573</ele>
        <time>2014-03-20T07:23:28Z</time>
      </trkpt>
      <trkpt lat="68.65913" lon="27.53888">
        <ele>130.395996</ele>
        <time>2014-03-20T07:23:39Z</time>
      </trkpt>
      <trkpt lat="68.65934" lon="27.53881">
        <ele>130.876709</ele>
        <time>2014-03-20T07:24:00Z</time>
      </trkpt>
      <trkpt lat="68.65947" lon="27.53876">
        <ele>130.876709</ele>
        <time>2014-03-20T07:24:17Z</time>
      </trkpt>
      <trkpt lat="68.65947" lon="27.53876">
        <ele>131.837891</ele>
        <time>2014-03-20T07:24:44Z</time>
      </trkpt>
      <trkpt lat="68.65948" lon="27.53875">
        <ele>131.837891</ele>
        <time>2014-03-20T07:25:01Z</time>
      </trkpt>
      <trkpt lat="68.65952" lon="27.53878">
        <ele>133.279907</ele>
        <time>2014-03-20T07:25:07Z</time>
      </trkpt>
      <trkpt lat="68.65954" lon="27.53878">
        <ele>131.837891</ele>
        <time>2014-03-20T07:25:09Z</time>
      </trkpt>
      <trkpt lat="68.65979" lon="27.5384">
        <ele>132.318604</ele>
        <time>2014-03-20T07:25:32Z</time>
      </trkpt>
      <trkpt lat="68.66002" lon="27.53858">
        <ele>131.837891</ele>
        <time>2014-03-20T07:25:54Z</time>
      </trkpt>
      <trkpt lat="68.66011" lon="27.53918">
        <ele>132.318604</ele>
        <time>2014-03-20T07:26:16Z</time>
      </trkpt>
      <trkpt lat="68.66024" lon="27.53912">
        <ele>131.837891</ele>
        <time>2014-03-20T07:26:32Z</time>
      </trkpt>
      <trkpt lat="68.66045" lon="27.53898">
        <ele>133.760498</ele>
        <time>2014-03-20T07:26:52Z</time>
      </trkpt>
      <trkpt lat="68.66067" lon="27.53883">
        <ele>134.721924</ele>
        <time>2014-03-20T07:27:13Z</time>
      </trkpt>
      <trkpt lat="68.66091" lon="27.5387">
        <ele>134.721924</ele>
        <time>2014-03-20T07:27:36Z</time>
      </trkpt>
      <trkpt lat="68.66098" lon="27.53867">
        <ele>135.683105</ele>
        <time>2014-03-20T07:27:49Z</time>
      </trkpt>
      <trkpt lat="68.66107" lon="27.53864">
        <ele>135.202515</ele>
        <time>2014-03-20T07:28:06Z</time>
      </trkpt>
      <trkpt lat="68.66128" lon="27.53856">
        <ele>135.202515</ele>
        <time>2014-03-20T07:28:26Z</time>
      </trkpt>
      <trkpt lat="68.66153" lon="27.53848">
        <ele>136.16394</ele>
        <time>2014-03-20T07:28:49Z</time>
      </trkpt>
      <trkpt lat="68.66174" lon="27.53841">
        <ele>136.16394</ele>
        <time>2014-03-20T07:29:10Z</time>
      </trkpt>
      <trkpt lat="68.66192" lon="27.53834">
        <ele>135.202515</ele>
        <time>2014-03-20T07:29:29Z</time>
      </trkpt>
      <trkpt lat="68.66217" lon="27.53826">
        <ele>135.683105</ele>
        <time>2014-03-20T07:29:53Z</time>
      </trkpt>
      <trkpt lat="68.66242" lon="27.53834">
        <ele>135.683105</ele>
        <time>2014-03-20T07:30:16Z</time>
      </trkpt>
      <trkpt lat="68.66257" lon="27.53856">
        <ele>136.16394</ele>
        <time>2014-03-20T07:30:35Z</time>
      </trkpt>
      <trkpt lat="68.6626" lon="27.53911">
        <ele>134.721924</ele>
        <time>2014-03-20T07:30:53Z</time>
      </trkpt>
      <trkpt lat="68.66266" lon="27.53986">
        <ele>132.799316</ele>
        <time>2014-03-20T07:31:17Z</time>
      </trkpt>
      <trkpt lat="68.66267" lon="27.53995">
        <ele>132.799316</ele>
        <time>2014-03-20T07:31:20Z</time>
      </trkpt>
      <trkpt lat="68.66278" lon="27.54039">
        <ele>132.318604</ele>
        <time>2014-03-20T07:31:38Z</time>
      </trkpt>
      <trkpt lat="68.66293" lon="27.54108">
        <ele>131.837891</ele>
        <time>2014-03-20T07:32:03Z</time>
      </trkpt>
      <trkpt lat="68.66306" lon="27.5417">
        <ele>131.837891</ele>
        <time>2014-03-20T07:32:26Z</time>
      </trkpt>
      <trkpt lat="68.66318" lon="27.54227">
        <ele>131.837891</ele>
        <time>2014-03-20T07:32:47Z</time>
      </trkpt>
      <trkpt lat="68.66325" lon="27.54257">
        <ele>132.799316</ele>
        <time>2014-03-20T07:33:06Z</time>
      </trkpt>
      <trkpt lat="68.66339" lon="27.54319">
        <ele>132.799316</ele>
        <time>2014-03-20T07:33:29Z</time>
      </trkpt>
      <trkpt lat="68.66348" lon="27.54371">
        <ele>132.799316</ele>
        <time>2014-03-20T07:33:46Z</time>
      </trkpt>
      <trkpt lat="68.66349" lon="27.54378">
        <ele>132.799316</ele>
        <time>2014-03-20T07:33:48Z</time>
      </trkpt>
      <trkpt lat="68.66357" lon="27.54457">
        <ele>132.318604</ele>
        <time>2014-03-20T07:34:12Z</time>
      </trkpt>
      <trkpt lat="68.66374" lon="27.5453">
        <ele>131.837891</ele>
        <time>2014-03-20T07:34:37Z</time>
      </trkpt>
      <trkpt lat="68.66378" lon="27.54545">
        <ele>131.837891</ele>
        <time>2014-03-20T07:34:43Z</time>
      </trkpt>
      <trkpt lat="68.66383" lon="27.54545">
        <ele>131.837891</ele>
        <time>2014-03-20T07:34:48Z</time>
      </trkpt>
      <trkpt lat="68.66414" lon="27.54525">
        <ele>132.799316</ele>
        <time>2014-03-20T07:35:14Z</time>
      </trkpt>
      <trkpt lat="68.66443" lon="27.54499">
        <ele>132.799316</ele>
        <time>2014-03-20T07:35:38Z</time>
      </trkpt>
      <trkpt lat="68.66462" lon="27.54483">
        <ele>131.837891</ele>
        <time>2014-03-20T07:35:56Z</time>
      </trkpt>
      <trkpt lat="68.66485" lon="27.54464">
        <ele>131.3573</ele>
        <time>2014-03-20T07:36:16Z</time>
      </trkpt>
      <trkpt lat="68.6651" lon="27.54445">
        <ele>130.395996</ele>
        <time>2014-03-20T07:36:36Z</time>
      </trkpt>
      <trkpt lat="68.66536" lon="27.54428">
        <ele>130.876709</ele>
        <time>2014-03-20T07:36:59Z</time>
      </trkpt>
      <trkpt lat="68.66547" lon="27.54406">
        <ele>130.876709</ele>
        <time>2014-03-20T07:37:17Z</time>
      </trkpt>
      <trkpt lat="68.6656" lon="27.5438">
        <ele>131.3573</ele>
        <time>2014-03-20T07:37:32Z</time>
      </trkpt>
      <trkpt lat="68.66587" lon="27.54322">
        <ele>130.876709</ele>
        <time>2014-03-20T07:37:58Z</time>
      </trkpt>
      <trkpt lat="68.66599" lon="27.54293">
        <ele>130.876709</ele>
        <time>2014-03-20T07:38:10Z</time>
      </trkpt>
      <trkpt lat="68.66602" lon="27.54281">
        <ele>130.876709</ele>
        <time>2014-03-20T07:38:15Z</time>
      </trkpt>
      <trkpt lat="68.66625" lon="27.54227">
        <ele>130.876709</ele>
        <time>2014-03-20T07:38:40Z</time>
      </trkpt>
      <trkpt lat="68.66647" lon="27.54171">
        <ele>131.837891</ele>
        <time>2014-03-20T07:39:04Z</time>
      </trkpt>
      <trkpt lat="68.66655" lon="27.54096">
        <ele>132.318604</ele>
        <time>2014-03-20T07:39:28Z</time>
      </trkpt>
      <trkpt lat="68.66668" lon="27.54026">
        <ele>132.799316</ele>
        <time>2014-03-20T07:39:52Z</time>
      </trkpt>
      <trkpt lat="68.66688" lon="27.53957">
        <ele>132.318604</ele>
        <time>2014-03-20T07:40:18Z</time>
      </trkpt>
      <trkpt lat="68.66689" lon="27.53954">
        <ele>131.837891</ele>
        <time>2014-03-20T07:40:19Z</time>
      </trkpt>
      <trkpt lat="68.66704" lon="27.53916">
        <ele>131.3573</ele>
        <time>2014-03-20T07:40:36Z</time>
      </trkpt>
      <trkpt lat="68.6672" lon="27.53847">
        <ele>130.395996</ele>
        <time>2014-03-20T07:41:01Z</time>
      </trkpt>
      <trkpt lat="68.66736" lon="27.53778">
        <ele>130.876709</ele>
        <time>2014-03-20T07:41:25Z</time>
      </trkpt>
      <trkpt lat="68.66745" lon="27.5371">
        <ele>131.837891</ele>
        <time>2014-03-20T07:41:47Z</time>
      </trkpt>
      <trkpt lat="68.66758" lon="27.53652">
        <ele>132.318604</ele>
        <time>2014-03-20T07:42:09Z</time>
      </trkpt>
      <trkpt lat="68.6676" lon="27.5364">
        <ele>132.799316</ele>
        <time>2014-03-20T07:42:13Z</time>
      </trkpt>
      <trkpt lat="68.66783" lon="27.53602">
        <ele>132.799316</ele>
        <time>2014-03-20T07:42:34Z</time>
      </trkpt>
      <trkpt lat="68.66799" lon="27.53548">
        <ele>133.279907</ele>
        <time>2014-03-20T07:42:55Z</time>
      </trkpt>
      <trkpt lat="68.66813" lon="27.53485">
        <ele>134.241211</ele>
        <time>2014-03-20T07:43:17Z</time>
      </trkpt>
      <trkpt lat="68.66823" lon="27.53455">
        <ele>134.241211</ele>
        <time>2014-03-20T07:43:34Z</time>
      </trkpt>
      <trkpt lat="68.66826" lon="27.53457">
        <ele>134.241211</ele>
        <time>2014-03-20T07:44:03Z</time>
      </trkpt>
      <trkpt lat="68.66859" lon="27.53431">
        <ele>133.279907</ele>
        <time>2014-03-20T07:44:30Z</time>
      </trkpt>
      <trkpt lat="68.66889" lon="27.53419">
        <ele>132.318604</ele>
        <time>2014-03-20T07:44:54Z</time>
      </trkpt>
      <trkpt lat="68.66909" lon="27.53426">
        <ele>132.318604</ele>
        <time>2014-03-20T07:45:12Z</time>
      </trkpt>
      <trkpt lat="68.66935" lon="27.53401">
        <ele>129.915283</ele>
        <time>2014-03-20T07:45:35Z</time>
      </trkpt>
      <trkpt lat="68.66948" lon="27.53366">
        <ele>130.876709</ele>
        <time>2014-03-20T07:45:52Z</time>
      </trkpt>
      <trkpt lat="68.66978" lon="27.53323">
        <ele>131.3573</ele>
        <time>2014-03-20T07:46:18Z</time>
      </trkpt>
      <trkpt lat="68.67011" lon="27.53299">
        <ele>131.3573</ele>
        <time>2014-03-20T07:46:46Z</time>
      </trkpt>
      <trkpt lat="68.67041" lon="27.53275">
        <ele>132.318604</ele>
        <time>2014-03-20T07:47:11Z</time>
      </trkpt>
      <trkpt lat="68.67071" lon="27.53244">
        <ele>132.318604</ele>
        <time>2014-03-20T07:47:36Z</time>
      </trkpt>
      <trkpt lat="68.67099" lon="27.53214">
        <ele>132.799316</ele>
        <time>2014-03-20T07:48:00Z</time>
      </trkpt>
      <trkpt lat="68.6713" lon="27.53177">
        <ele>133.760498</ele>
        <time>2014-03-20T07:48:27Z</time>
      </trkpt>
      <trkpt lat="68.67165" lon="27.53164">
        <ele>134.241211</ele>
        <time>2014-03-20T07:48:53Z</time>
      </trkpt>
      <trkpt lat="68.67197" lon="27.53138">
        <ele>134.241211</ele>
        <time>2014-03-20T07:49:18Z</time>
      </trkpt>
      <trkpt lat="68.67223" lon="27.53093">
        <ele>135.202515</ele>
        <time>2014-03-20T07:49:41Z</time>
      </trkpt>
      <trkpt lat="68.67242" lon="27.53048">
        <ele>135.202515</ele>
        <time>2014-03-20T07:50:02Z</time>
      </trkpt>
      <trkpt lat="68.67269" lon="27.52979">
        <ele>136.16394</ele>
        <time>2014-03-20T07:50:30Z</time>
      </trkpt>
      <trkpt lat="68.67296" lon="27.52914">
        <ele>136.644653</ele>
        <time>2014-03-20T07:50:57Z</time>
      </trkpt>
      <trkpt lat="68.67321" lon="27.52857">
        <ele>138.086548</ele>
        <time>2014-03-20T07:51:22Z</time>
      </trkpt>
      <trkpt lat="68.67343" lon="27.528">
        <ele>140.009155</ele>
        <time>2014-03-20T07:51:46Z</time>
      </trkpt>
      <trkpt lat="68.67369" lon="27.52751">
        <ele>140.489868</ele>
        <time>2014-03-20T07:52:11Z</time>
      </trkpt>
      <trkpt lat="68.67383" lon="27.52742">
        <ele>140.489868</ele>
        <time>2014-03-20T07:52:22Z</time>
      </trkpt>
      <trkpt lat="68.67408" lon="27.52713">
        <ele>141.931763</ele>
        <time>2014-03-20T07:52:43Z</time>
      </trkpt>
      <trkpt lat="68.67439" lon="27.52689">
        <ele>144.335205</ele>
        <time>2014-03-20T07:53:09Z</time>
      </trkpt>
      <trkpt lat="68.67444" lon="27.52686">
        <ele>144.335205</ele>
        <time>2014-03-20T07:53:29Z</time>
      </trkpt>
      <trkpt lat="68.67454" lon="27.52682">
        <ele>144.815796</ele>
        <time>2014-03-20T07:54:27Z</time>
      </trkpt>
      <trkpt lat="68.67477" lon="27.52672">
        <ele>146.738403</ele>
        <time>2014-03-20T07:54:48Z</time>
      </trkpt>
      <trkpt lat="68.67494" lon="27.52653">
        <ele>148.18042</ele>
        <time>2014-03-20T07:55:05Z</time>
      </trkpt>
      <trkpt lat="68.67517" lon="27.52623">
        <ele>151.064209</ele>
        <time>2014-03-20T07:55:27Z</time>
      </trkpt>
      <trkpt lat="68.67534" lon="27.52598">
        <ele>152.986938</ele>
        <time>2014-03-20T07:55:45Z</time>
      </trkpt>
      <trkpt lat="68.67543" lon="27.5258">
        <ele>155.870972</ele>
        <time>2014-03-20T07:55:54Z</time>
      </trkpt>
      <trkpt lat="68.67552" lon="27.52552">
        <ele>159.716187</ele>
        <time>2014-03-20T07:56:07Z</time>
      </trkpt>
      <trkpt lat="68.67562" lon="27.52499">
        <ele>158.27417</ele>
        <time>2014-03-20T07:56:27Z</time>
      </trkpt>
      <trkpt lat="68.67562" lon="27.52476">
        <ele>156.351563</ele>
        <time>2014-03-20T07:56:34Z</time>
      </trkpt>
      <trkpt lat="68.6756" lon="27.52417">
        <ele>155.390259</ele>
        <time>2014-03-20T07:56:54Z</time>
      </trkpt>
      <trkpt lat="68.67559" lon="27.52356">
        <ele>153.948364</ele>
        <time>2014-03-20T07:57:14Z</time>
      </trkpt>
      <trkpt lat="68.67561" lon="27.52314">
        <ele>152.986938</ele>
        <time>2014-03-20T07:57:32Z</time>
      </trkpt>
      <trkpt lat="68.67558" lon="27.52263">
        <ele>152.986938</ele>
        <time>2014-03-20T07:57:51Z</time>
      </trkpt>
      <trkpt lat="68.67555" lon="27.52227">
        <ele>152.025757</ele>
        <time>2014-03-20T07:58:04Z</time>
      </trkpt>
      <trkpt lat="68.67554" lon="27.52203">
        <ele>150.583618</ele>
        <time>2014-03-20T07:58:15Z</time>
      </trkpt>
      <trkpt lat="68.67549" lon="27.52137">
        <ele>150.103027</ele>
        <time>2014-03-20T07:58:37Z</time>
      </trkpt>
      <trkpt lat="68.67541" lon="27.52042">
        <ele>150.583618</ele>
        <time>2014-03-20T07:59:06Z</time>
      </trkpt>
      <trkpt lat="68.67549" lon="27.51966">
        <ele>149.141602</ele>
        <time>2014-03-20T07:59:29Z</time>
      </trkpt>
      <trkpt lat="68.67574" lon="27.51907">
        <ele>148.661011</ele>
        <time>2014-03-20T07:59:53Z</time>
      </trkpt>
      <trkpt lat="68.67596" lon="27.51849">
        <ele>147.218994</ele>
        <time>2014-03-20T08:00:16Z</time>
      </trkpt>
      <trkpt lat="68.67612" lon="27.51771">
        <ele>144.335205</ele>
        <time>2014-03-20T08:00:40Z</time>
      </trkpt>
      <trkpt lat="68.67624" lon="27.51703">
        <ele>144.335205</ele>
        <time>2014-03-20T08:01:01Z</time>
      </trkpt>
      <trkpt lat="68.67631" lon="27.51676">
        <ele>144.335205</ele>
        <time>2014-03-20T08:01:18Z</time>
      </trkpt>
      <trkpt lat="68.67637" lon="27.51651">
        <ele>144.335205</ele>
        <time>2014-03-20T08:01:30Z</time>
      </trkpt>
      <trkpt lat="68.67663" lon="27.51568">
        <ele>144.335205</ele>
        <time>2014-03-20T08:01:59Z</time>
      </trkpt>
      <trkpt lat="68.67694" lon="27.51507">
        <ele>144.335205</ele>
        <time>2014-03-20T08:02:27Z</time>
      </trkpt>
      <trkpt lat="68.677" lon="27.51501">
        <ele>144.335205</ele>
        <time>2014-03-20T08:02:32Z</time>
      </trkpt>
      <trkpt lat="68.67721" lon="27.51497">
        <ele>144.335205</ele>
        <time>2014-03-20T08:02:50Z</time>
      </trkpt>
      <trkpt lat="68.67736" lon="27.51502">
        <ele>144.815796</ele>
        <time>2014-03-20T08:03:04Z</time>
      </trkpt>
      <trkpt lat="68.67763" lon="27.51548">
        <ele>144.815796</ele>
        <time>2014-03-20T08:03:31Z</time>
      </trkpt>
      <trkpt lat="68.67781" lon="27.51593">
        <ele>147.218994</ele>
        <time>2014-03-20T08:03:53Z</time>
      </trkpt>
      <trkpt lat="68.67789" lon="27.51616">
        <ele>148.18042</ele>
        <time>2014-03-20T08:04:09Z</time>
      </trkpt>
      <trkpt lat="68.67796" lon="27.51634">
        <ele>151.544922</ele>
        <time>2014-03-20T08:04:21Z</time>
      </trkpt>
      <trkpt lat="68.67801" lon="27.5165">
        <ele>153.948364</ele>
        <time>2014-03-20T08:04:30Z</time>
      </trkpt>
      <trkpt lat="68.67815" lon="27.5168">
        <ele>157.312866</ele>
        <time>2014-03-20T08:04:50Z</time>
      </trkpt>
      <trkpt lat="68.67816" lon="27.51681">
        <ele>157.793579</ele>
        <time>2014-03-20T08:04:51Z</time>
      </trkpt>
      <trkpt lat="68.67819" lon="27.51685">
        <ele>158.27417</ele>
        <time>2014-03-20T08:04:55Z</time>
      </trkpt>
      <trkpt lat="68.67846" lon="27.51677">
        <ele>158.27417</ele>
        <time>2014-03-20T08:05:19Z</time>
      </trkpt>
      <trkpt lat="68.67871" lon="27.51679">
        <ele>160.196899</ele>
        <time>2014-03-20T08:05:41Z</time>
      </trkpt>
      <trkpt lat="68.67885" lon="27.51713">
        <ele>161.638916</ele>
        <time>2014-03-20T08:05:58Z</time>
      </trkpt>
      <trkpt lat="68.6789" lon="27.51737">
        <ele>163.080811</ele>
        <time>2014-03-20T08:06:12Z</time>
      </trkpt>
      <trkpt lat="68.67904" lon="27.5178">
        <ele>165.484131</ele>
        <time>2014-03-20T08:06:31Z</time>
      </trkpt>
      <trkpt lat="68.67927" lon="27.5177">
        <ele>163.561523</ele>
        <time>2014-03-20T08:06:51Z</time>
      </trkpt>
      <trkpt lat="68.67941" lon="27.51753">
        <ele>160.67749</ele>
        <time>2014-03-20T08:07:04Z</time>
      </trkpt>
      <trkpt lat="68.67966" lon="27.51728">
        <ele>158.754761</ele>
        <time>2014-03-20T08:07:24Z</time>
      </trkpt>
      <trkpt lat="68.67998" lon="27.51713">
        <ele>157.312866</ele>
        <time>2014-03-20T08:07:48Z</time>
      </trkpt>
      <trkpt lat="68.6802" lon="27.51739">
        <ele>159.235474</ele>
        <time>2014-03-20T08:08:10Z</time>
      </trkpt>
      <trkpt lat="68.68032" lon="27.51795">
        <ele>162.119507</ele>
        <time>2014-03-20T08:08:32Z</time>
      </trkpt>
      <trkpt lat="68.68034" lon="27.51829">
        <ele>165.003418</ele>
        <time>2014-03-20T08:08:45Z</time>
      </trkpt>
      <trkpt lat="68.68036" lon="27.51876">
        <ele>167.887329</ele>
        <time>2014-03-20T08:09:01Z</time>
      </trkpt>
      <trkpt lat="68.68041" lon="27.51914">
        <ele>171.252075</ele>
        <time>2014-03-20T08:09:15Z</time>
      </trkpt>
      <trkpt lat="68.68057" lon="27.51954">
        <ele>170.771362</ele>
        <time>2014-03-20T08:09:35Z</time>
      </trkpt>
      <trkpt lat="68.68065" lon="27.51967">
        <ele>170.771362</ele>
        <time>2014-03-20T08:09:47Z</time>
      </trkpt>
      <trkpt lat="68.6809" lon="27.51985">
        <ele>168.848755</ele>
        <time>2014-03-20T08:10:08Z</time>
      </trkpt>
      <trkpt lat="68.68097" lon="27.51986">
        <ele>165.964722</ele>
        <time>2014-03-20T08:10:15Z</time>
      </trkpt>
      <trkpt lat="68.68119" lon="27.51978">
        <ele>162.600098</ele>
        <time>2014-03-20T08:10:32Z</time>
      </trkpt>
      <trkpt lat="68.68146" lon="27.51957">
        <ele>161.158203</ele>
        <time>2014-03-20T08:10:55Z</time>
      </trkpt>
      <trkpt lat="68.68151" lon="27.51951">
        <ele>161.158203</ele>
        <time>2014-03-20T08:11:15Z</time>
      </trkpt>
      <trkpt lat="68.68151" lon="27.51952">
        <ele>162.119507</ele>
        <time>2014-03-20T08:11:23Z</time>
      </trkpt>
      <trkpt lat="68.68151" lon="27.51956">
        <ele>161.158203</ele>
        <time>2014-03-20T08:11:58Z</time>
      </trkpt>
      <trkpt lat="68.68153" lon="27.51953">
        <ele>160.196899</ele>
        <time>2014-03-20T08:12:19Z</time>
      </trkpt>
      <trkpt lat="68.6816" lon="27.51944">
        <ele>159.716187</ele>
        <time>2014-03-20T08:12:26Z</time>
      </trkpt>
      <trkpt lat="68.68188" lon="27.51908">
        <ele>158.27417</ele>
        <time>2014-03-20T08:12:50Z</time>
      </trkpt>
      <trkpt lat="68.68212" lon="27.51863">
        <ele>158.27417</ele>
        <time>2014-03-20T08:13:13Z</time>
      </trkpt>
      <trkpt lat="68.6823" lon="27.5182">
        <ele>159.235474</ele>
        <time>2014-03-20T08:13:34Z</time>
      </trkpt>
      <trkpt lat="68.68236" lon="27.51797">
        <ele>159.716187</ele>
        <time>2014-03-20T08:13:45Z</time>
      </trkpt>
      <trkpt lat="68.68241" lon="27.5178">
        <ele>159.235474</ele>
        <time>2014-03-20T08:13:54Z</time>
      </trkpt>
      <trkpt lat="68.68243" lon="27.51774">
        <ele>158.754761</ele>
        <time>2014-03-20T08:13:57Z</time>
      </trkpt>
      <trkpt lat="68.68256" lon="27.51713">
        <ele>157.793579</ele>
        <time>2014-03-20T08:14:19Z</time>
      </trkpt>
      <trkpt lat="68.68266" lon="27.51668">
        <ele>156.832153</ele>
        <time>2014-03-20T08:14:38Z</time>
      </trkpt>
      <trkpt lat="68.68268" lon="27.51671">
        <ele>157.312866</ele>
        <time>2014-03-20T08:14:52Z</time>
      </trkpt>
      <trkpt lat="68.68274" lon="27.51635">
        <ele>157.312866</ele>
        <time>2014-03-20T08:15:07Z</time>
      </trkpt>
      <trkpt lat="68.68286" lon="27.51555">
        <ele>154.909546</ele>
        <time>2014-03-20T08:15:32Z</time>
      </trkpt>
      <trkpt lat="68.68298" lon="27.51489">
        <ele>152.506348</ele>
        <time>2014-03-20T08:15:53Z</time>
      </trkpt>
      <trkpt lat="68.68316" lon="27.51418">
        <ele>152.025757</ele>
        <time>2014-03-20T08:16:17Z</time>
      </trkpt>
      <trkpt lat="68.6833" lon="27.51362">
        <ele>149.141602</ele>
        <time>2014-03-20T08:16:38Z</time>
      </trkpt>
      <trkpt lat="68.68351" lon="27.51322">
        <ele>146.257813</ele>
        <time>2014-03-20T08:17:00Z</time>
      </trkpt>
      <trkpt lat="68.68369" lon="27.51317">
        <ele>146.738403</ele>
        <time>2014-03-20T08:17:17Z</time>
      </trkpt>
      <trkpt lat="68.6839" lon="27.51344">
        <ele>148.18042</ele>
        <time>2014-03-20T08:17:39Z</time>
      </trkpt>
      <trkpt lat="68.68406" lon="27.51377">
        <ele>151.544922</ele>
        <time>2014-03-20T08:17:59Z</time>
      </trkpt>
      <trkpt lat="68.68426" lon="27.51405">
        <ele>152.986938</ele>
        <time>2014-03-20T08:18:21Z</time>
      </trkpt>
      <trkpt lat="68.68444" lon="27.51417">
        <ele>154.428955</ele>
        <time>2014-03-20T08:18:41Z</time>
      </trkpt>
      <trkpt lat="68.68463" lon="27.51401">
        <ele>154.909546</ele>
        <time>2014-03-20T08:19:01Z</time>
      </trkpt>
      <trkpt lat="68.68477" lon="27.51348">
        <ele>152.986938</ele>
        <time>2014-03-20T08:19:24Z</time>
      </trkpt>
      <trkpt lat="68.68481" lon="27.51316">
        <ele>152.025757</ele>
        <time>2014-03-20T08:19:42Z</time>
      </trkpt>
      <trkpt lat="68.68484" lon="27.51284">
        <ele>149.622314</ele>
        <time>2014-03-20T08:20:27Z</time>
      </trkpt>
      <trkpt lat="68.68481" lon="27.51229">
        <ele>146.738403</ele>
        <time>2014-03-20T08:20:47Z</time>
      </trkpt>
      <trkpt lat="68.68476" lon="27.51176">
        <ele>145.296387</ele>
        <time>2014-03-20T08:21:08Z</time>
      </trkpt>
      <trkpt lat="68.68471" lon="27.51141">
        <ele>144.335205</ele>
        <time>2014-03-20T08:21:26Z</time>
      </trkpt>
      <trkpt lat="68.6847" lon="27.51135">
        <ele>143.85437</ele>
        <time>2014-03-20T08:21:28Z</time>
      </trkpt>
      <trkpt lat="68.68461" lon="27.51063">
        <ele>144.335205</ele>
        <time>2014-03-20T08:21:53Z</time>
      </trkpt>
      <trkpt lat="68.68452" lon="27.50988">
        <ele>143.373657</ele>
        <time>2014-03-20T08:22:19Z</time>
      </trkpt>
      <trkpt lat="68.68447" lon="27.50947">
        <ele>144.815796</ele>
        <time>2014-03-20T08:22:36Z</time>
      </trkpt>
      <trkpt lat="68.68441" lon="27.5092">
        <ele>144.815796</ele>
        <time>2014-03-20T08:22:58Z</time>
      </trkpt>
      <trkpt lat="68.68439" lon="27.50911">
        <ele>145.296387</ele>
        <time>2014-03-20T08:23:30Z</time>
      </trkpt>
      <trkpt lat="68.6843" lon="27.50873">
        <ele>145.7771</ele>
        <time>2014-03-20T08:23:47Z</time>
      </trkpt>
      <trkpt lat="68.68413" lon="27.50825">
        <ele>147.699707</ele>
        <time>2014-03-20T08:24:08Z</time>
      </trkpt>
      <trkpt lat="68.68407" lon="27.50816">
        <ele>147.699707</ele>
        <time>2014-03-20T08:24:22Z</time>
      </trkpt>
      <trkpt lat="68.684" lon="27.50795">
        <ele>149.141602</ele>
        <time>2014-03-20T08:24:36Z</time>
      </trkpt>
      <trkpt lat="68.68387" lon="27.50771">
        <ele>150.103027</ele>
        <time>2014-03-20T08:24:53Z</time>
      </trkpt>
      <trkpt lat="68.68372" lon="27.50759">
        <ele>153.467651</ele>
        <time>2014-03-20T08:25:07Z</time>
      </trkpt>
      <trkpt lat="68.68356" lon="27.50779">
        <ele>153.948364</ele>
        <time>2014-03-20T08:25:24Z</time>
      </trkpt>
      <trkpt lat="68.6835" lon="27.50797">
        <ele>154.909546</ele>
        <time>2014-03-20T08:25:41Z</time>
      </trkpt>
      <trkpt lat="68.68342" lon="27.50813">
        <ele>155.390259</ele>
        <time>2014-03-20T08:25:55Z</time>
      </trkpt>
      <trkpt lat="68.68326" lon="27.50853">
        <ele>156.351563</ele>
        <time>2014-03-20T08:26:16Z</time>
      </trkpt>
      <trkpt lat="68.68308" lon="27.50885">
        <ele>156.351563</ele>
        <time>2014-03-20T08:26:36Z</time>
      </trkpt>
      <trkpt lat="68.68294" lon="27.50909">
        <ele>153.467651</ele>
        <time>2014-03-20T08:26:51Z</time>
      </trkpt>
      <trkpt lat="68.68284" lon="27.50949">
        <ele>150.583618</ele>
        <time>2014-03-20T08:27:08Z</time>
      </trkpt>
      <trkpt lat="68.68281" lon="27.50987">
        <ele>147.218994</ele>
        <time>2014-03-20T08:27:21Z</time>
      </trkpt>
      <trkpt lat="68.68281" lon="27.51027">
        <ele>145.7771</ele>
        <time>2014-03-20T08:27:36Z</time>
      </trkpt>
      <trkpt lat="68.68281" lon="27.51096">
        <ele>144.815796</ele>
        <time>2014-03-20T08:27:58Z</time>
      </trkpt>
      <trkpt lat="68.6828" lon="27.51123">
        <ele>143.85437</ele>
        <time>2014-03-20T08:28:17Z</time>
      </trkpt>
      <trkpt lat="68.68279" lon="27.51149">
        <ele>143.85437</ele>
        <time>2014-03-20T08:28:29Z</time>
      </trkpt>
      <trkpt lat="68.68273" lon="27.51212">
        <ele>145.7771</ele>
        <time>2014-03-20T08:28:51Z</time>
      </trkpt>
      <trkpt lat="68.68263" lon="27.51269">
        <ele>148.18042</ele>
        <time>2014-03-20T08:29:13Z</time>
      </trkpt>
      <trkpt lat="68.68252" lon="27.51309">
        <ele>148.18042</ele>
        <time>2014-03-20T08:29:34Z</time>
      </trkpt>
      <trkpt lat="68.68246" lon="27.51327">
        <ele>147.699707</ele>
        <time>2014-03-20T08:29:43Z</time>
      </trkpt>
      <trkpt lat="68.68245" lon="27.51332">
        <ele>149.622314</ele>
        <time>2014-03-20T08:29:45Z</time>
      </trkpt>
      <trkpt lat="68.6823" lon="27.51382">
        <ele>150.583618</ele>
        <time>2014-03-20T08:30:06Z</time>
      </trkpt>
      <trkpt lat="68.68224" lon="27.51399">
        <ele>151.544922</ele>
        <time>2014-03-20T08:30:14Z</time>
      </trkpt>
      <trkpt lat="68.68218" lon="27.51418">
        <ele>151.544922</ele>
        <time>2014-03-20T08:30:22Z</time>
      </trkpt>
      <trkpt lat="68.682" lon="27.51466">
        <ele>152.025757</ele>
        <time>2014-03-20T08:30:44Z</time>
      </trkpt>
      <trkpt lat="68.68181" lon="27.51509">
        <ele>152.506348</ele>
        <time>2014-03-20T08:31:05Z</time>
      </trkpt>
      <trkpt lat="68.68161" lon="27.51557">
        <ele>153.948364</ele>
        <time>2014-03-20T08:31:28Z</time>
      </trkpt>
      <trkpt lat="68.68143" lon="27.51607">
        <ele>155.390259</ele>
        <time>2014-03-20T08:31:50Z</time>
      </trkpt>
      <trkpt lat="68.68127" lon="27.51657">
        <ele>156.351563</ele>
        <time>2014-03-20T08:32:14Z</time>
      </trkpt>
      <trkpt lat="68.68123" lon="27.51678">
        <ele>156.351563</ele>
        <time>2014-03-20T08:32:27Z</time>
      </trkpt>
      <trkpt lat="68.68118" lon="27.51717">
        <ele>159.716187</ele>
        <time>2014-03-20T08:32:41Z</time>
      </trkpt>
      <trkpt lat="68.68117" lon="27.51741">
        <ele>161.158203</ele>
        <time>2014-03-20T08:32:49Z</time>
      </trkpt>
      <trkpt lat="68.68115" lon="27.51777">
        <ele>164.042114</ele>
        <time>2014-03-20T08:33:02Z</time>
      </trkpt>
      <trkpt lat="68.68106" lon="27.51817">
        <ele>165.964722</ele>
        <time>2014-03-20T08:33:20Z</time>
      </trkpt>
      <trkpt lat="68.68083" lon="27.51844">
        <ele>167.406738</ele>
        <time>2014-03-20T08:33:42Z</time>
      </trkpt>
      <trkpt lat="68.68074" lon="27.51836">
        <ele>166.926025</ele>
        <time>2014-03-20T08:34:01Z</time>
      </trkpt>
      <trkpt lat="68.68067" lon="27.51829">
        <ele>166.926025</ele>
        <time>2014-03-20T08:34:21Z</time>
      </trkpt>
      <trkpt lat="68.68063" lon="27.5181">
        <ele>165.003418</ele>
        <time>2014-03-20T08:34:36Z</time>
      </trkpt>
      <trkpt lat="68.68061" lon="27.51802">
        <ele>164.042114</ele>
        <time>2014-03-20T08:34:53Z</time>
      </trkpt>
      <trkpt lat="68.68059" lon="27.51793">
        <ele>163.561523</ele>
        <time>2014-03-20T08:34:58Z</time>
      </trkpt>
      <trkpt lat="68.68054" lon="27.51765">
        <ele>161.158203</ele>
        <time>2014-03-20T08:35:09Z</time>
      </trkpt>
      <trkpt lat="68.68047" lon="27.51727">
        <ele>159.235474</ele>
        <time>2014-03-20T08:35:28Z</time>
      </trkpt>
      <trkpt lat="68.68042" lon="27.51699">
        <ele>156.832153</ele>
        <time>2014-03-20T08:35:38Z</time>
      </trkpt>
      <trkpt lat="68.6803" lon="27.51641">
        <ele>153.948364</ele>
        <time>2014-03-20T08:35:59Z</time>
      </trkpt>
      <trkpt lat="68.68015" lon="27.51579">
        <ele>152.986938</ele>
        <time>2014-03-20T08:36:23Z</time>
      </trkpt>
      <trkpt lat="68.68013" lon="27.5157">
        <ele>152.025757</ele>
        <time>2014-03-20T08:36:31Z</time>
      </trkpt>
      <trkpt lat="68.67991" lon="27.51525">
        <ele>150.103027</ele>
        <time>2014-03-20T08:36:55Z</time>
      </trkpt>
      <trkpt lat="68.67982" lon="27.51519">
        <ele>149.141602</ele>
        <time>2014-03-20T08:37:11Z</time>
      </trkpt>
      <trkpt lat="68.67977" lon="27.51517">
        <ele>148.661011</ele>
        <time>2014-03-20T08:37:25Z</time>
      </trkpt>
      <trkpt lat="68.67969" lon="27.51516">
        <ele>148.661011</ele>
        <time>2014-03-20T08:37:36Z</time>
      </trkpt>
      <trkpt lat="68.67948" lon="27.51534">
        <ele>150.103027</ele>
        <time>2014-03-20T08:37:56Z</time>
      </trkpt>
      <trkpt lat="68.67936" lon="27.51545">
        <ele>152.986938</ele>
        <time>2014-03-20T08:38:08Z</time>
      </trkpt>
      <trkpt lat="68.67914" lon="27.51542">
        <ele>153.948364</ele>
        <time>2014-03-20T08:38:28Z</time>
      </trkpt>
      <trkpt lat="68.67889" lon="27.51512">
        <ele>152.506348</ele>
        <time>2014-03-20T08:38:51Z</time>
      </trkpt>
      <trkpt lat="68.67873" lon="27.51488">
        <ele>149.141602</ele>
        <time>2014-03-20T08:39:07Z</time>
      </trkpt>
      <trkpt lat="68.6785" lon="27.51455">
        <ele>146.257813</ele>
        <time>2014-03-20T08:39:28Z</time>
      </trkpt>
      <trkpt lat="68.67822" lon="27.51435">
        <ele>145.7771</ele>
        <time>2014-03-20T08:39:51Z</time>
      </trkpt>
      <trkpt lat="68.67796" lon="27.51441">
        <ele>145.296387</ele>
        <time>2014-03-20T08:40:14Z</time>
      </trkpt>
      <trkpt lat="68.67785" lon="27.51449">
        <ele>145.7771</ele>
        <time>2014-03-20T08:40:31Z</time>
      </trkpt>
      <trkpt lat="68.67772" lon="27.51454">
        <ele>145.7771</ele>
        <time>2014-03-20T08:40:46Z</time>
      </trkpt>
      <trkpt lat="68.67747" lon="27.5147">
        <ele>145.7771</ele>
        <time>2014-03-20T08:41:07Z</time>
      </trkpt>
      <trkpt lat="68.67725" lon="27.51486">
        <ele>144.815796</ele>
        <time>2014-03-20T08:41:28Z</time>
      </trkpt>
      <trkpt lat="68.67719" lon="27.51491">
        <ele>144.815796</ele>
        <time>2014-03-20T08:41:40Z</time>
      </trkpt>
      <trkpt lat="68.67709" lon="27.515">
        <ele>145.296387</ele>
        <time>2014-03-20T08:41:58Z</time>
      </trkpt>
      <trkpt lat="68.6771" lon="27.515">
        <ele>145.296387</ele>
        <time>2014-03-20T08:42:00Z</time>
      </trkpt>
      <trkpt lat="68.67733" lon="27.51483">
        <ele>145.296387</ele>
        <time>2014-03-20T08:42:25Z</time>
      </trkpt>
      <trkpt lat="68.67734" lon="27.51483">
        <ele>145.296387</ele>
        <time>2014-03-20T08:42:42Z</time>
      </trkpt>
      <trkpt lat="68.67734" lon="27.51482">
        <ele>145.7771</ele>
        <time>2014-03-20T08:43:18Z</time>
      </trkpt>
      <trkpt lat="68.67735" lon="27.51461">
        <ele>145.296387</ele>
        <time>2014-03-20T08:43:26Z</time>
      </trkpt>
      <trkpt lat="68.67735" lon="27.51461">
        <ele>145.296387</ele>
        <time>2014-03-20T08:43:28Z</time>
      </trkpt>
      <trkpt lat="68.67735" lon="27.51484">
        <ele>145.296387</ele>
        <time>2014-03-20T08:43:43Z</time>
      </trkpt>
      <trkpt lat="68.67735" lon="27.51483">
        <ele>146.257813</ele>
        <time>2014-03-20T08:43:57Z</time>
      </trkpt>
      <trkpt lat="68.67737" lon="27.51462">
        <ele>145.296387</ele>
        <time>2014-03-20T08:44:06Z</time>
      </trkpt>
      <trkpt lat="68.67734" lon="27.51483">
        <ele>145.7771</ele>
        <time>2014-03-20T08:44:20Z</time>
      </trkpt>
      <trkpt lat="68.67729" lon="27.5148">
        <ele>145.7771</ele>
        <time>2014-03-20T08:44:32Z</time>
      </trkpt>
      <trkpt lat="68.6772" lon="27.51487">
        <ele>146.257813</ele>
        <time>2014-03-20T08:44:40Z</time>
      </trkpt>
      <trkpt lat="68.677" lon="27.5151">
        <ele>144.815796</ele>
        <time>2014-03-20T08:44:59Z</time>
      </trkpt>
      <trkpt lat="68.67678" lon="27.51546">
        <ele>145.7771</ele>
        <time>2014-03-20T08:45:21Z</time>
      </trkpt>
      <trkpt lat="68.67658" lon="27.51599">
        <ele>145.7771</ele>
        <time>2014-03-20T08:45:44Z</time>
      </trkpt>
      <trkpt lat="68.67636" lon="27.51679">
        <ele>145.7771</ele>
        <time>2014-03-20T08:46:13Z</time>
      </trkpt>
      <trkpt lat="68.67623" lon="27.51747">
        <ele>147.218994</ele>
        <time>2014-03-20T08:46:36Z</time>
      </trkpt>
      <trkpt lat="68.67613" lon="27.51806">
        <ele>147.699707</ele>
        <time>2014-03-20T08:46:56Z</time>
      </trkpt>
      <trkpt lat="68.67595" lon="27.51878">
        <ele>149.622314</ele>
        <time>2014-03-20T08:47:23Z</time>
      </trkpt>
      <trkpt lat="68.67579" lon="27.51915">
        <ele>151.064209</ele>
        <time>2014-03-20T08:47:41Z</time>
      </trkpt>
      <trkpt lat="68.67558" lon="27.51959">
        <ele>151.064209</ele>
        <time>2014-03-20T08:48:03Z</time>
      </trkpt>
      <trkpt lat="68.67547" lon="27.52018">
        <ele>152.506348</ele>
        <time>2014-03-20T08:48:24Z</time>
      </trkpt>
      <trkpt lat="68.67551" lon="27.52097">
        <ele>152.025757</ele>
        <time>2014-03-20T08:48:49Z</time>
      </trkpt>
      <trkpt lat="68.67556" lon="27.52154">
        <ele>152.506348</ele>
        <time>2014-03-20T08:49:07Z</time>
      </trkpt>
      <trkpt lat="68.67561" lon="27.52212">
        <ele>152.506348</ele>
        <time>2014-03-20T08:49:26Z</time>
      </trkpt>
      <trkpt lat="68.67564" lon="27.52243">
        <ele>153.948364</ele>
        <time>2014-03-20T08:49:42Z</time>
      </trkpt>
      <trkpt lat="68.67568" lon="27.52264">
        <ele>153.948364</ele>
        <time>2014-03-20T08:49:59Z</time>
      </trkpt>
      <trkpt lat="68.67568" lon="27.52264">
        <ele>153.948364</ele>
        <time>2014-03-20T08:50:32Z</time>
      </trkpt>
      <trkpt lat="68.67574" lon="27.52285">
        <ele>154.909546</ele>
        <time>2014-03-20T08:50:42Z</time>
      </trkpt>
      <trkpt lat="68.6759" lon="27.52273">
        <ele>154.909546</ele>
        <time>2014-03-20T08:51:01Z</time>
      </trkpt>
      <trkpt lat="68.67599" lon="27.52258">
        <ele>155.870972</ele>
        <time>2014-03-20T08:51:19Z</time>
      </trkpt>
      <trkpt lat="68.6761" lon="27.52242">
        <ele>156.832153</ele>
        <time>2014-03-20T08:51:37Z</time>
      </trkpt>
      <trkpt lat="68.6761" lon="27.52242">
        <ele>156.832153</ele>
        <time>2014-03-20T08:51:56Z</time>
      </trkpt>
      <trkpt lat="68.67607" lon="27.52239">
        <ele>156.351563</ele>
        <time>2014-03-20T08:52:18Z</time>
      </trkpt>
      <trkpt lat="68.6761" lon="27.5224">
        <ele>157.312866</ele>
        <time>2014-03-20T08:52:43Z</time>
      </trkpt>
      <trkpt lat="68.67612" lon="27.52249">
        <ele>157.793579</ele>
        <time>2014-03-20T08:52:56Z</time>
      </trkpt>
      <trkpt lat="68.67612" lon="27.52247">
        <ele>158.27417</ele>
        <time>2014-03-20T08:53:01Z</time>
      </trkpt>
      <trkpt lat="68.67612" lon="27.52242">
        <ele>157.312866</ele>
        <time>2014-03-20T08:53:13Z</time>
      </trkpt>
      <trkpt lat="68.67613" lon="27.52243">
        <ele>157.312866</ele>
        <time>2014-03-20T08:53:30Z</time>
      </trkpt>
      <trkpt lat="68.67614" lon="27.52241">
        <ele>156.832153</ele>
        <time>2014-03-20T08:53:51Z</time>
      </trkpt>
      <trkpt lat="68.67614" lon="27.52253">
        <ele>157.312866</ele>
        <time>2014-03-20T08:54:12Z</time>
      </trkpt>
      <trkpt lat="68.67612" lon="27.52251">
        <ele>157.793579</ele>
        <time>2014-03-20T08:54:27Z</time>
      </trkpt>
      <trkpt lat="68.67613" lon="27.52242">
        <ele>157.312866</ele>
        <time>2014-03-20T08:54:40Z</time>
      </trkpt>
      <trkpt lat="68.67617" lon="27.52234">
        <ele>157.312866</ele>
        <time>2014-03-20T08:55:14Z</time>
      </trkpt>
      <trkpt lat="68.6762" lon="27.5223">
        <ele>157.312866</ele>
        <time>2014-03-20T08:55:26Z</time>
      </trkpt>
      <trkpt lat="68.67623" lon="27.52223">
        <ele>157.793579</ele>
        <time>2014-03-20T08:55:42Z</time>
      </trkpt>
      <trkpt lat="68.67614" lon="27.52204">
        <ele>152.506348</ele>
        <time>2014-03-20T08:55:50Z</time>
      </trkpt>
      <trkpt lat="68.67614" lon="27.52204">
        <ele>153.467651</ele>
        <time>2014-03-20T08:55:52Z</time>
      </trkpt>
      <trkpt lat="68.6762" lon="27.52216">
        <ele>155.870972</ele>
        <time>2014-03-20T08:56:05Z</time>
      </trkpt>
      <trkpt lat="68.67625" lon="27.52221">
        <ele>155.390259</ele>
        <time>2014-03-20T08:56:20Z</time>
      </trkpt>
      <trkpt lat="68.67618" lon="27.52211">
        <ele>152.986938</ele>
        <time>2014-03-20T08:56:32Z</time>
      </trkpt>
      <trkpt lat="68.67618" lon="27.52213">
        <ele>155.390259</ele>
        <time>2014-03-20T08:56:35Z</time>
      </trkpt>
      <trkpt lat="68.6762" lon="27.52231">
        <ele>157.312866</ele>
        <time>2014-03-20T08:56:50Z</time>
      </trkpt>
      <trkpt lat="68.6762" lon="27.52246">
        <ele>157.312866</ele>
        <time>2014-03-20T08:57:04Z</time>
      </trkpt>
      <trkpt lat="68.67621" lon="27.52239">
        <ele>157.793579</ele>
        <time>2014-03-20T08:57:31Z</time>
      </trkpt>
      <trkpt lat="68.67621" lon="27.52237">
        <ele>157.312866</ele>
        <time>2014-03-20T08:57:42Z</time>
      </trkpt>
      <trkpt lat="68.67611" lon="27.52241">
        <ele>157.793579</ele>
        <time>2014-03-20T08:57:58Z</time>
      </trkpt>
      <trkpt lat="68.67608" lon="27.52258">
        <ele>157.312866</ele>
        <time>2014-03-20T08:58:12Z</time>
      </trkpt>
      <trkpt lat="68.67607" lon="27.52251">
        <ele>156.832153</ele>
        <time>2014-03-20T08:58:29Z</time>
      </trkpt>
      <trkpt lat="68.67607" lon="27.52252">
        <ele>157.312866</ele>
        <time>2014-03-20T08:58:47Z</time>
      </trkpt>
      <trkpt lat="68.67606" lon="27.52255">
        <ele>156.351563</ele>
        <time>2014-03-20T08:59:01Z</time>
      </trkpt>
      <trkpt lat="68.67596" lon="27.52267">
        <ele>155.390259</ele>
        <time>2014-03-20T08:59:24Z</time>
      </trkpt>
      <trkpt lat="68.67594" lon="27.52269">
        <ele>155.870972</ele>
        <time>2014-03-20T08:59:26Z</time>
      </trkpt>
      <trkpt lat="68.67573" lon="27.52289">
        <ele>154.428955</ele>
        <time>2014-03-20T08:59:46Z</time>
      </trkpt>
      <trkpt lat="68.6757" lon="27.52289">
        <ele>153.948364</ele>
        <time>2014-03-20T08:59:58Z</time>
      </trkpt>
      <trkpt lat="68.67549" lon="27.52274">
        <ele>152.025757</ele>
        <time>2014-03-20T09:00:19Z</time>
      </trkpt>
      <trkpt lat="68.67531" lon="27.52283">
        <ele>151.064209</ele>
        <time>2014-03-20T09:00:36Z</time>
      </trkpt>
      <trkpt lat="68.6753" lon="27.52281">
        <ele>151.064209</ele>
        <time>2014-03-20T09:00:56Z</time>
      </trkpt>
      <trkpt lat="68.67529" lon="27.52283">
        <ele>151.544922</ele>
        <time>2014-03-20T09:01:16Z</time>
      </trkpt>
      <trkpt lat="68.67521" lon="27.52307">
        <ele>150.583618</ele>
        <time>2014-03-20T09:01:31Z</time>
      </trkpt>
      <trkpt lat="68.67507" lon="27.52331">
        <ele>150.103027</ele>
        <time>2014-03-20T09:01:45Z</time>
      </trkpt>
      <trkpt lat="68.67477" lon="27.52358">
        <ele>150.583618</ele>
        <time>2014-03-20T09:02:09Z</time>
      </trkpt>
      <trkpt lat="68.67443" lon="27.52387">
        <ele>150.103027</ele>
        <time>2014-03-20T09:02:36Z</time>
      </trkpt>
      <trkpt lat="68.67419" lon="27.52407">
        <ele>150.103027</ele>
        <time>2014-03-20T09:02:57Z</time>
      </trkpt>
      <trkpt lat="68.6739" lon="27.52431">
        <ele>150.103027</ele>
        <time>2014-03-20T09:03:21Z</time>
      </trkpt>
      <trkpt lat="68.67375" lon="27.52447">
        <ele>148.661011</ele>
        <time>2014-03-20T09:03:35Z</time>
      </trkpt>
      <trkpt lat="68.6735" lon="27.52469">
        <ele>148.661011</ele>
        <time>2014-03-20T09:03:57Z</time>
      </trkpt>
      <trkpt lat="68.67321" lon="27.52492">
        <ele>147.218994</ele>
        <time>2014-03-20T09:04:20Z</time>
      </trkpt>
      <trkpt lat="68.67292" lon="27.52489">
        <ele>143.85437</ele>
        <time>2014-03-20T09:04:43Z</time>
      </trkpt>
      <trkpt lat="68.6727" lon="27.52471">
        <ele>142.893066</ele>
        <time>2014-03-20T09:05:02Z</time>
      </trkpt>
      <trkpt lat="68.67241" lon="27.52442">
        <ele>140.489868</ele>
        <time>2014-03-20T09:05:25Z</time>
      </trkpt>
      <trkpt lat="68.67207" lon="27.5241">
        <ele>140.489868</ele>
        <time>2014-03-20T09:05:52Z</time>
      </trkpt>
      <trkpt lat="68.67181" lon="27.52384">
        <ele>140.009155</ele>
        <time>2014-03-20T09:06:13Z</time>
      </trkpt>
      <trkpt lat="68.67156" lon="27.52358">
        <ele>140.009155</ele>
        <time>2014-03-20T09:06:36Z</time>
      </trkpt>
      <trkpt lat="68.67141" lon="27.52346">
        <ele>140.489868</ele>
        <time>2014-03-20T09:06:49Z</time>
      </trkpt>
      <trkpt lat="68.67116" lon="27.52322">
        <ele>141.45105</ele>
        <time>2014-03-20T09:07:11Z</time>
      </trkpt>
      <trkpt lat="68.67096" lon="27.52298">
        <ele>141.931763</ele>
        <time>2014-03-20T09:07:29Z</time>
      </trkpt>
      <trkpt lat="68.67093" lon="27.52293">
        <ele>141.45105</ele>
        <time>2014-03-20T09:07:32Z</time>
      </trkpt>
      <trkpt lat="68.67087" lon="27.52229">
        <ele>140.489868</ele>
        <time>2014-03-20T09:07:52Z</time>
      </trkpt>
      <trkpt lat="68.67084" lon="27.52162">
        <ele>139.528442</ele>
        <time>2014-03-20T09:08:11Z</time>
      </trkpt>
      <trkpt lat="68.67083" lon="27.52069">
        <ele>138.567261</ele>
        <time>2014-03-20T09:08:37Z</time>
      </trkpt>
      <trkpt lat="68.67076" lon="27.52012">
        <ele>139.528442</ele>
        <time>2014-03-20T09:08:57Z</time>
      </trkpt>
      <trkpt lat="68.67075" lon="27.52006">
        <ele>139.047852</ele>
        <time>2014-03-20T09:09:08Z</time>
      </trkpt>
      <trkpt lat="68.67072" lon="27.51982">
        <ele>138.086548</ele>
        <time>2014-03-20T09:09:22Z</time>
      </trkpt>
      <trkpt lat="68.67068" lon="27.51984">
        <ele>138.086548</ele>
        <time>2014-03-20T09:09:26Z</time>
      </trkpt>
      <trkpt lat="68.67048" lon="27.51979">
        <ele>136.16394</ele>
        <time>2014-03-20T09:09:44Z</time>
      </trkpt>
      <trkpt lat="68.67021" lon="27.52016">
        <ele>137.125244</ele>
        <time>2014-03-20T09:10:10Z</time>
      </trkpt>
      <trkpt lat="68.67003" lon="27.52042">
        <ele>136.644653</ele>
        <time>2014-03-20T09:10:28Z</time>
      </trkpt>
      <trkpt lat="68.66978" lon="27.52071">
        <ele>137.125244</ele>
        <time>2014-03-20T09:10:49Z</time>
      </trkpt>
      <trkpt lat="68.66958" lon="27.5206">
        <ele>137.125244</ele>
        <time>2014-03-20T09:11:06Z</time>
      </trkpt>
      <trkpt lat="68.66928" lon="27.52005">
        <ele>137.125244</ele>
        <time>2014-03-20T09:11:34Z</time>
      </trkpt>
      <trkpt lat="68.66901" lon="27.51957">
        <ele>135.683105</ele>
        <time>2014-03-20T09:11:59Z</time>
      </trkpt>
      <trkpt lat="68.66862" lon="27.51915">
        <ele>135.683105</ele>
        <time>2014-03-20T09:12:31Z</time>
      </trkpt>
      <trkpt lat="68.66832" lon="27.5189">
        <ele>135.202515</ele>
        <time>2014-03-20T09:12:55Z</time>
      </trkpt>
      <trkpt lat="68.66805" lon="27.51867">
        <ele>134.241211</ele>
        <time>2014-03-20T09:13:17Z</time>
      </trkpt>
      <trkpt lat="68.66768" lon="27.51843">
        <ele>134.241211</ele>
        <time>2014-03-20T09:13:46Z</time>
      </trkpt>
      <trkpt lat="68.66733" lon="27.5183">
        <ele>133.760498</ele>
        <time>2014-03-20T09:14:13Z</time>
      </trkpt>
      <trkpt lat="68.66699" lon="27.51834">
        <ele>133.760498</ele>
        <time>2014-03-20T09:14:39Z</time>
      </trkpt>
      <trkpt lat="68.66675" lon="27.51844">
        <ele>132.799316</ele>
        <time>2014-03-20T09:14:59Z</time>
      </trkpt>
      <trkpt lat="68.66647" lon="27.51848">
        <ele>132.799316</ele>
        <time>2014-03-20T09:15:21Z</time>
      </trkpt>
      <trkpt lat="68.66611" lon="27.51878">
        <ele>132.799316</ele>
        <time>2014-03-20T09:15:49Z</time>
      </trkpt>
      <trkpt lat="68.66577" lon="27.51903">
        <ele>132.799316</ele>
        <time>2014-03-20T09:16:16Z</time>
      </trkpt>
      <trkpt lat="68.66561" lon="27.51864">
        <ele>132.799316</ele>
        <time>2014-03-20T09:16:34Z</time>
      </trkpt>
      <trkpt lat="68.66534" lon="27.51831">
        <ele>132.799316</ele>
        <time>2014-03-20T09:16:57Z</time>
      </trkpt>
      <trkpt lat="68.66511" lon="27.51823">
        <ele>132.799316</ele>
        <time>2014-03-20T09:17:16Z</time>
      </trkpt>
      <trkpt lat="68.66504" lon="27.51821">
        <ele>132.318604</ele>
        <time>2014-03-20T09:17:23Z</time>
      </trkpt>
      <trkpt lat="68.66494" lon="27.51824">
        <ele>132.318604</ele>
        <time>2014-03-20T09:17:40Z</time>
      </trkpt>
      <trkpt lat="68.66494" lon="27.51821">
        <ele>132.318604</ele>
        <time>2014-03-20T09:17:59Z</time>
      </trkpt>
      <trkpt lat="68.66494" lon="27.51819">
        <ele>132.799316</ele>
        <time>2014-03-20T09:18:22Z</time>
      </trkpt>
      <trkpt lat="68.66494" lon="27.51818">
        <ele>132.318604</ele>
        <time>2014-03-20T09:19:08Z</time>
      </trkpt>
      <trkpt lat="68.66494" lon="27.51819">
        <ele>132.799316</ele>
        <time>2014-03-20T09:19:39Z</time>
      </trkpt>
      <trkpt lat="68.66497" lon="27.51817">
        <ele>131.837891</ele>
        <time>2014-03-20T09:19:57Z</time>
      </trkpt>
      <trkpt lat="68.66489" lon="27.51812">
        <ele>132.799316</ele>
        <time>2014-03-20T09:20:22Z</time>
      </trkpt>
      <trkpt lat="68.66464" lon="27.51802">
        <ele>132.799316</ele>
        <time>2014-03-20T09:20:44Z</time>
      </trkpt>
      <trkpt lat="68.66438" lon="27.51773">
        <ele>134.241211</ele>
        <time>2014-03-20T09:21:08Z</time>
      </trkpt>
      <trkpt lat="68.66419" lon="27.51766">
        <ele>135.202515</ele>
        <time>2014-03-20T09:21:24Z</time>
      </trkpt>
      <trkpt lat="68.66388" lon="27.51773">
        <ele>136.16394</ele>
        <time>2014-03-20T09:21:50Z</time>
      </trkpt>
      <trkpt lat="68.66372" lon="27.51767">
        <ele>136.16394</ele>
        <time>2014-03-20T09:22:06Z</time>
      </trkpt>
      <trkpt lat="68.66357" lon="27.51706">
        <ele>135.202515</ele>
        <time>2014-03-20T09:22:27Z</time>
      </trkpt>
      <trkpt lat="68.66342" lon="27.51632">
        <ele>134.241211</ele>
        <time>2014-03-20T09:22:52Z</time>
      </trkpt>
      <trkpt lat="68.66323" lon="27.51554">
        <ele>134.241211</ele>
        <time>2014-03-20T09:23:19Z</time>
      </trkpt>
      <trkpt lat="68.66318" lon="27.51483">
        <ele>131.837891</ele>
        <time>2014-03-20T09:23:40Z</time>
      </trkpt>
      <trkpt lat="68.66325" lon="27.51401">
        <ele>132.799316</ele>
        <time>2014-03-20T09:24:05Z</time>
      </trkpt>
      <trkpt lat="68.66302" lon="27.51377">
        <ele>133.760498</ele>
        <time>2014-03-20T09:24:26Z</time>
      </trkpt>
      <trkpt lat="68.66273" lon="27.51356">
        <ele>132.318604</ele>
        <time>2014-03-20T09:24:50Z</time>
      </trkpt>
      <trkpt lat="68.66243" lon="27.51332">
        <ele>132.799316</ele>
        <time>2014-03-20T09:25:14Z</time>
      </trkpt>
      <trkpt lat="68.66216" lon="27.51345">
        <ele>133.279907</ele>
        <time>2014-03-20T09:25:38Z</time>
      </trkpt>
      <trkpt lat="68.66182" lon="27.51357">
        <ele>132.318604</ele>
        <time>2014-03-20T09:26:05Z</time>
      </trkpt>
      <trkpt lat="68.66154" lon="27.51357">
        <ele>132.318604</ele>
        <time>2014-03-20T09:26:28Z</time>
      </trkpt>
      <trkpt lat="68.66144" lon="27.5136">
        <ele>132.318604</ele>
        <time>2014-03-20T09:26:40Z</time>
      </trkpt>
      <trkpt lat="68.66115" lon="27.51374">
        <ele>132.799316</ele>
        <time>2014-03-20T09:27:04Z</time>
      </trkpt>
      <trkpt lat="68.6608" lon="27.5138">
        <ele>132.318604</ele>
        <time>2014-03-20T09:27:31Z</time>
      </trkpt>
      <trkpt lat="68.66044" lon="27.51387">
        <ele>132.318604</ele>
        <time>2014-03-20T09:27:59Z</time>
      </trkpt>
      <trkpt lat="68.66016" lon="27.51401">
        <ele>131.837891</ele>
        <time>2014-03-20T09:28:22Z</time>
      </trkpt>
      <trkpt lat="68.65985" lon="27.51405">
        <ele>130.876709</ele>
        <time>2014-03-20T09:28:46Z</time>
      </trkpt>
      <trkpt lat="68.65955" lon="27.51413">
        <ele>131.3573</ele>
        <time>2014-03-20T09:29:09Z</time>
      </trkpt>
      <trkpt lat="68.65947" lon="27.51416">
        <ele>131.837891</ele>
        <time>2014-03-20T09:29:19Z</time>
      </trkpt>
      <trkpt lat="68.65918" lon="27.51416">
        <ele>130.876709</ele>
        <time>2014-03-20T09:29:40Z</time>
      </trkpt>
      <trkpt lat="68.65887" lon="27.51426">
        <ele>130.876709</ele>
        <time>2014-03-20T09:30:04Z</time>
      </trkpt>
      <trkpt lat="68.65853" lon="27.51437">
        <ele>131.3573</ele>
        <time>2014-03-20T09:30:30Z</time>
      </trkpt>
      <trkpt lat="68.65825" lon="27.51436">
        <ele>130.876709</ele>
        <time>2014-03-20T09:30:52Z</time>
      </trkpt>
      <trkpt lat="68.65794" lon="27.51465">
        <ele>130.876709</ele>
        <time>2014-03-20T09:31:18Z</time>
      </trkpt>
      <trkpt lat="68.65782" lon="27.51524">
        <ele>130.395996</ele>
        <time>2014-03-20T09:31:37Z</time>
      </trkpt>
      <trkpt lat="68.65781" lon="27.51527">
        <ele>130.395996</ele>
        <time>2014-03-20T09:31:38Z</time>
      </trkpt>
      <trkpt lat="68.65765" lon="27.51589">
        <ele>130.395996</ele>
        <time>2014-03-20T09:31:59Z</time>
      </trkpt>
      <trkpt lat="68.65746" lon="27.51652">
        <ele>130.876709</ele>
        <time>2014-03-20T09:32:24Z</time>
      </trkpt>
      <trkpt lat="68.65744" lon="27.51694">
        <ele>131.3573</ele>
        <time>2014-03-20T09:32:40Z</time>
      </trkpt>
      <trkpt lat="68.65743" lon="27.51699">
        <ele>131.3573</ele>
        <time>2014-03-20T09:33:01Z</time>
      </trkpt>
      <trkpt lat="68.65739" lon="27.51744">
        <ele>129.915283</ele>
        <time>2014-03-20T09:33:22Z</time>
      </trkpt>
      <trkpt lat="68.65725" lon="27.51816">
        <ele>129.915283</ele>
        <time>2014-03-20T09:33:45Z</time>
      </trkpt>
      <trkpt lat="68.65709" lon="27.5187">
        <ele>128.954102</ele>
        <time>2014-03-20T09:34:06Z</time>
      </trkpt>
      <trkpt lat="68.65697" lon="27.51901">
        <ele>128.954102</ele>
        <time>2014-03-20T09:34:19Z</time>
      </trkpt>
      <trkpt lat="68.65694" lon="27.51911">
        <ele>129.434692</ele>
        <time>2014-03-20T09:34:23Z</time>
      </trkpt>
      <trkpt lat="68.65675" lon="27.51961">
        <ele>128.473389</ele>
        <time>2014-03-20T09:34:45Z</time>
      </trkpt>
      <trkpt lat="68.65655" lon="27.52006">
        <ele>128.954102</ele>
        <time>2014-03-20T09:35:08Z</time>
      </trkpt>
      <trkpt lat="68.65635" lon="27.52031">
        <ele>128.954102</ele>
        <time>2014-03-20T09:35:25Z</time>
      </trkpt>
      <trkpt lat="68.65608" lon="27.52065">
        <ele>128.954102</ele>
        <time>2014-03-20T09:35:48Z</time>
      </trkpt>
      <trkpt lat="68.65582" lon="27.52106">
        <ele>129.434692</ele>
        <time>2014-03-20T09:36:12Z</time>
      </trkpt>
      <trkpt lat="68.65558" lon="27.52147">
        <ele>128.954102</ele>
        <time>2014-03-20T09:36:34Z</time>
      </trkpt>
      <trkpt lat="68.6553" lon="27.52202">
        <ele>127.992554</ele>
        <time>2014-03-20T09:37:02Z</time>
      </trkpt>
      <trkpt lat="68.65505" lon="27.52261">
        <ele>127.992554</ele>
        <time>2014-03-20T09:37:30Z</time>
      </trkpt>
      <trkpt lat="68.65495" lon="27.52288">
        <ele>127.992554</ele>
        <time>2014-03-20T09:37:43Z</time>
      </trkpt>
      <trkpt lat="68.65475" lon="27.52345">
        <ele>128.473389</ele>
        <time>2014-03-20T09:38:06Z</time>
      </trkpt>
      <trkpt lat="68.65454" lon="27.52411">
        <ele>127.992554</ele>
        <time>2014-03-20T09:38:31Z</time>
      </trkpt>
      <trkpt lat="68.65438" lon="27.5246">
        <ele>128.473389</ele>
        <time>2014-03-20T09:38:51Z</time>
      </trkpt>
      <trkpt lat="68.65418" lon="27.52525">
        <ele>127.511963</ele>
        <time>2014-03-20T09:39:16Z</time>
      </trkpt>
      <trkpt lat="68.65399" lon="27.5259">
        <ele>127.511963</ele>
        <time>2014-03-20T09:39:40Z</time>
      </trkpt>
      <trkpt lat="68.6538" lon="27.52654">
        <ele>127.992554</ele>
        <time>2014-03-20T09:40:04Z</time>
      </trkpt>
      <trkpt lat="68.65361" lon="27.52721">
        <ele>127.511963</ele>
        <time>2014-03-20T09:40:29Z</time>
      </trkpt>
      <trkpt lat="68.65345" lon="27.52783">
        <ele>127.031372</ele>
        <time>2014-03-20T09:40:51Z</time>
      </trkpt>
      <trkpt lat="68.65327" lon="27.52853">
        <ele>127.511963</ele>
        <time>2014-03-20T09:41:16Z</time>
      </trkpt>
      <trkpt lat="68.65326" lon="27.52859">
        <ele>127.511963</ele>
        <time>2014-03-20T09:41:18Z</time>
      </trkpt>
      <trkpt lat="68.65324" lon="27.5289">
        <ele>127.031372</ele>
        <time>2014-03-20T09:41:28Z</time>
      </trkpt>
      <trkpt lat="68.65323" lon="27.52903">
        <ele>127.511963</ele>
        <time>2014-03-20T09:41:32Z</time>
      </trkpt>
      <trkpt lat="68.65313" lon="27.52957">
        <ele>127.031372</ele>
        <time>2014-03-20T09:41:52Z</time>
      </trkpt>
      <trkpt lat="68.65304" lon="27.52993">
        <ele>127.031372</ele>
        <time>2014-03-20T09:42:07Z</time>
      </trkpt>
      <trkpt lat="68.65294" lon="27.53035">
        <ele>127.992554</ele>
        <time>2014-03-20T09:42:22Z</time>
      </trkpt>
      <trkpt lat="68.65286" lon="27.53058">
        <ele>127.031372</ele>
        <time>2014-03-20T09:42:31Z</time>
      </trkpt>
      <trkpt lat="68.65269" lon="27.53124">
        <ele>127.511963</ele>
        <time>2014-03-20T09:42:55Z</time>
      </trkpt>
      <trkpt lat="68.65253" lon="27.5319">
        <ele>127.511963</ele>
        <time>2014-03-20T09:43:18Z</time>
      </trkpt>
      <trkpt lat="68.65236" lon="27.53259">
        <ele>127.511963</ele>
        <time>2014-03-20T09:43:42Z</time>
      </trkpt>
      <trkpt lat="68.65219" lon="27.53331">
        <ele>127.511963</ele>
        <time>2014-03-20T09:44:07Z</time>
      </trkpt>
      <trkpt lat="68.65216" lon="27.53352">
        <ele>127.511963</ele>
        <time>2014-03-20T09:44:14Z</time>
      </trkpt>
      <trkpt lat="68.65211" lon="27.53375">
        <ele>127.511963</ele>
        <time>2014-03-20T09:44:23Z</time>
      </trkpt>
      <trkpt lat="68.65208" lon="27.53385">
        <ele>127.511963</ele>
        <time>2014-03-20T09:44:27Z</time>
      </trkpt>
      <trkpt lat="68.65192" lon="27.53447">
        <ele>127.992554</ele>
        <time>2014-03-20T09:44:50Z</time>
      </trkpt>
      <trkpt lat="68.65175" lon="27.53516">
        <ele>127.511963</ele>
        <time>2014-03-20T09:45:15Z</time>
      </trkpt>
      <trkpt lat="68.65156" lon="27.53578">
        <ele>127.031372</ele>
        <time>2014-03-20T09:45:39Z</time>
      </trkpt>
      <trkpt lat="68.65137" lon="27.53634">
        <ele>127.511963</ele>
        <time>2014-03-20T09:46:01Z</time>
      </trkpt>
      <trkpt lat="68.65116" lon="27.53698">
        <ele>127.511963</ele>
        <time>2014-03-20T09:46:26Z</time>
      </trkpt>
      <trkpt lat="68.65096" lon="27.53755">
        <ele>127.511963</ele>
        <time>2014-03-20T09:46:50Z</time>
      </trkpt>
      <trkpt lat="68.65073" lon="27.53805">
        <ele>127.511963</ele>
        <time>2014-03-20T09:47:16Z</time>
      </trkpt>
      <trkpt lat="68.65048" lon="27.53852">
        <ele>127.992554</ele>
        <time>2014-03-20T09:47:41Z</time>
      </trkpt>
      <trkpt lat="68.65029" lon="27.53889">
        <ele>127.511963</ele>
        <time>2014-03-20T09:48:01Z</time>
      </trkpt>
      <trkpt lat="68.65016" lon="27.53915">
        <ele>127.992554</ele>
        <time>2014-03-20T09:48:15Z</time>
      </trkpt>
      <trkpt lat="68.64994" lon="27.53949">
        <ele>127.511963</ele>
        <time>2014-03-20T09:48:35Z</time>
      </trkpt>
      <trkpt lat="68.64971" lon="27.53986">
        <ele>127.992554</ele>
        <time>2014-03-20T09:48:58Z</time>
      </trkpt>
      <trkpt lat="68.64951" lon="27.54028">
        <ele>127.511963</ele>
        <time>2014-03-20T09:49:20Z</time>
      </trkpt>
      <trkpt lat="68.64933" lon="27.54073">
        <ele>127.511963</ele>
        <time>2014-03-20T09:49:42Z</time>
      </trkpt>
      <trkpt lat="68.6493" lon="27.54117">
        <ele>128.954102</ele>
        <time>2014-03-20T09:50:00Z</time>
      </trkpt>
      <trkpt lat="68.64934" lon="27.54141">
        <ele>132.799316</ele>
        <time>2014-03-20T09:50:13Z</time>
      </trkpt>
      <trkpt lat="68.64937" lon="27.54155">
        <ele>132.799316</ele>
        <time>2014-03-20T09:50:20Z</time>
      </trkpt>
      <trkpt lat="68.64942" lon="27.54163">
        <ele>133.279907</ele>
        <time>2014-03-20T09:50:35Z</time>
      </trkpt>
      <trkpt lat="68.64943" lon="27.54163">
        <ele>133.279907</ele>
        <time>2014-03-20T09:50:36Z</time>
      </trkpt>
      <trkpt lat="68.64943" lon="27.54163">
        <ele>131.837891</ele>
        <time>2014-03-20T09:50:39Z</time>
      </trkpt>
      <trkpt lat="68.64943" lon="27.54167">
        <ele>131.837891</ele>
        <time>2014-03-20T09:50:50Z</time>
      </trkpt>
    </trkseg>
  </trk>
</gpx>